createdAt,value
2023-03-16T00:00:21.115Z,13.52
2023-03-16T00:02:48.573Z,14.07
2023-03-16T00:05:15.959Z,15.63
2023-03-16T00:07:43.567Z,14.32
2023-03-16T00:10:12.685Z,15.18
2023-03-16T00:12:43.750Z,15.52
2023-03-16T00:15:14.195Z,15.07
2023-03-16T00:17:41.614Z,14.82
2023-03-16T00:20:10.058Z,19.60
2023-03-16T00:22:37.470Z,18.20
2023-03-16T00:25:05.203Z,17.77
2023-03-16T00:27:32.559Z,21.27
2023-03-16T00:30:00.052Z,18.48
2023-03-16T00:32:36.049Z,16.77
2023-03-16T00:35:06.271Z,16.52
2023-03-16T00:37:34.778Z,17.80
2023-03-16T00:40:02.266Z,16.50
2023-03-16T00:42:31.829Z,16.23
2023-03-16T00:45:00.616Z,15.70
2023-03-16T00:47:30.619Z,15.35
2023-03-16T00:49:58.986Z,13.32
2023-03-16T00:52:27.773Z,14.57
2023-03-16T00:54:56.091Z,11.75
2023-03-16T00:57:25.668Z,13.27
2023-03-16T00:59:53.104Z,12.82
2023-03-16T01:02:25.771Z,11.50
2023-03-16T01:04:54.961Z,12.57
2023-03-16T01:07:23.296Z,11.95
2023-03-16T01:09:51.475Z,13.98
2023-03-16T01:12:20.250Z,16.67
2023-03-16T01:14:48.039Z,19.05
2023-03-16T01:17:17.380Z,19.67
2023-03-16T01:19:45.909Z,17.75
2023-03-16T01:22:14.322Z,17.70
2023-03-16T01:24:45.344Z,14.13
2023-03-16T01:27:13.631Z,14.60
2023-03-16T01:29:43.835Z,12.88
2023-03-16T01:32:12.300Z,13.88
2023-03-16T01:34:39.494Z,14.13
2023-03-16T01:37:07.539Z,14.18
2023-03-16T01:40:02.361Z,13.32
2023-03-16T01:42:30.555Z,12.02
2023-03-16T01:45:05.746Z,10.93
2023-03-16T01:47:39.991Z,10.63
2023-03-16T01:50:13.549Z,11.98
2023-03-16T01:52:42.609Z,10.80
2023-03-16T01:55:14.316Z,8.90
2023-03-16T01:57:45.533Z,10.10
2023-03-16T02:00:19.771Z,9.88
2023-03-16T02:03:10.778Z,9.73
2023-03-16T02:05:58.318Z,8.93
2023-03-16T02:08:27.964Z,10.05
2023-03-16T02:10:57.415Z,8.77
2023-03-16T02:13:36.937Z,11.27
2023-03-16T02:16:07.586Z,9.63
2023-03-16T02:18:36.456Z,10.07
2023-03-16T02:21:16.475Z,9.93
2023-03-16T02:23:44.534Z,9.43
2023-03-16T02:26:19.806Z,10.60
2023-03-16T02:28:55.082Z,9.80
2023-03-16T02:31:22.785Z,9.38
2023-03-16T02:33:52.973Z,9.38
2023-03-16T02:36:21.366Z,10.50
2023-03-16T02:38:49.115Z,10.07
2023-03-16T02:41:21.851Z,10.50
2023-03-16T02:44:01.695Z,11.30
2023-03-16T02:46:36.630Z,11.30
2023-03-16T02:49:11.832Z,12.95
2023-03-16T02:51:39.645Z,12.93
2023-03-16T02:54:07.041Z,12.35
2023-03-16T02:56:35.255Z,12.68
2023-03-16T02:59:03.491Z,11.27
2023-03-16T03:01:32.730Z,11.73
2023-03-16T03:04:00.047Z,11.88
2023-03-16T03:06:28.353Z,11.32
2023-03-16T03:08:56.559Z,11.38
2023-03-16T03:11:24.123Z,10.23
2023-03-16T03:13:51.680Z,10.13
2023-03-16T03:16:22.385Z,10.25
2023-03-16T03:18:52.916Z,11.38
2023-03-16T03:21:21.149Z,11.15
2023-03-16T03:23:48.547Z,10.50
2023-03-16T03:26:16.484Z,11.05
2023-03-16T03:28:45.600Z,11.45
2023-03-16T03:31:19.384Z,13.05
2023-03-16T03:33:46.775Z,11.45
2023-03-16T03:36:17.510Z,12.38
2023-03-16T03:38:45.835Z,11.23
2023-03-16T03:41:13.457Z,10.45
2023-03-16T03:43:41.520Z,12.82
2023-03-16T03:46:14.710Z,12.05
2023-03-16T03:48:42.108Z,11.38
2023-03-16T03:51:09.781Z,12.23
2023-03-16T03:53:58.227Z,10.82
2023-03-16T03:56:40.764Z,11.38
2023-03-16T03:59:12.649Z,12.05
2023-03-16T04:02:18.747Z,10.15
2023-03-16T04:04:51.246Z,9.38
2023-03-16T04:07:18.474Z,10.55
2023-03-16T04:09:46.891Z,9.73
2023-03-16T04:12:30.613Z,10.23
2023-03-16T04:14:58.583Z,9.27
2023-03-16T04:17:31.110Z,11.15
2023-03-16T04:20:00.092Z,10.63
2023-03-16T04:22:30.563Z,12.13
2023-03-16T04:24:58.567Z,11.75
2023-03-16T04:27:27.877Z,12.80
2023-03-16T04:29:58.744Z,10.30
2023-03-16T04:32:27.692Z,9.55
2023-03-16T04:34:56.714Z,10.18
2023-03-16T04:37:34.772Z,8.20
2023-03-16T04:40:11.010Z,9.30
2023-03-16T04:42:43.013Z,8.68
2023-03-16T04:45:15.293Z,8.40
2023-03-16T04:47:43.725Z,8.13
2023-03-16T04:50:12.496Z,9.68
2023-03-16T04:52:41.398Z,9.77
2023-03-16T04:55:09.522Z,9.38
2023-03-16T04:57:38.164Z,8.10
2023-03-16T05:00:15.130Z,8.65
2023-03-16T05:03:04.502Z,9.10
2023-03-16T05:05:51.177Z,8.85
2023-03-16T05:08:18.983Z,9.38
2023-03-16T05:10:49.734Z,8.68
2023-03-16T05:13:17.798Z,8.27
2023-03-16T05:15:48.468Z,8.60
2023-03-16T05:18:23.671Z,8.55
2023-03-16T05:20:56.162Z,7.78
2023-03-16T05:23:26.968Z,8.00
2023-03-16T05:26:04.917Z,7.80
2023-03-16T05:28:35.475Z,6.93
2023-03-16T05:31:10.105Z,7.75
2023-03-16T05:33:44.869Z,8.07
2023-03-16T05:36:19.838Z,9.23
2023-03-16T05:38:51.046Z,7.40
2023-03-16T05:41:26.852Z,7.50
2023-03-16T05:44:08.640Z,9.25
2023-03-16T05:46:54.352Z,7.68
2023-03-16T05:49:21.653Z,8.85
2023-03-16T05:51:50.385Z,8.15
2023-03-16T05:54:17.972Z,8.68
2023-03-16T05:56:46.716Z,10.88
2023-03-16T05:59:18.103Z,8.40
2023-03-16T06:01:51.096Z,8.10
2023-03-16T06:04:20.617Z,8.40
2023-03-16T06:06:48.925Z,8.20
2023-03-16T06:09:22.470Z,8.15
2023-03-16T06:11:49.845Z,8.38
2023-03-16T06:14:18.128Z,9.90
2023-03-16T06:16:46.124Z,8.60
2023-03-16T06:19:17.887Z,9.38
2023-03-16T06:21:51.376Z,8.35
2023-03-16T06:24:21.992Z,9.43
2023-03-16T06:26:52.598Z,10.63
2023-03-16T06:29:22.435Z,10.10
2023-03-16T06:31:51.991Z,9.98
2023-03-16T06:34:19.553Z,10.52
2023-03-16T06:36:49.721Z,8.80
2023-03-16T06:39:16.833Z,9.40
2023-03-16T06:41:47.933Z,9.02
2023-03-16T06:44:17.144Z,8.93
2023-03-16T06:47:05.236Z,9.73
2023-03-16T06:49:33.822Z,9.57
2023-03-16T06:52:05.016Z,8.90
2023-03-16T06:54:35.240Z,9.00
2023-03-16T06:57:03.961Z,9.95
2023-03-16T06:59:31.576Z,9.10
2023-03-16T07:01:59.204Z,9.38
2023-03-16T07:04:29.060Z,10.02
2023-03-16T07:06:56.661Z,10.05
2023-03-16T07:09:24.556Z,10.40
2023-03-16T07:11:53.183Z,11.55
2023-03-16T07:14:30.484Z,10.27
2023-03-16T07:17:05.914Z,11.02
2023-03-16T07:19:46.889Z,11.45
2023-03-16T07:22:14.803Z,11.77
2023-03-16T07:24:43.945Z,11.98
2023-03-16T07:27:12.629Z,12.55
2023-03-16T07:29:41.473Z,12.32
2023-03-16T07:32:10.579Z,13.10
2023-03-16T07:34:39.926Z,13.35
2023-03-16T07:37:10.492Z,14.77
2023-03-16T07:39:38.534Z,12.27
2023-03-16T07:42:16.798Z,11.70
2023-03-16T07:45:19.773Z,12.48
2023-03-16T07:47:47.456Z,13.23
2023-03-16T07:50:23.359Z,12.15
2023-03-16T07:52:52.539Z,12.50
2023-03-16T07:55:20.236Z,14.13
2023-03-16T07:57:48.497Z,13.07
2023-03-16T08:00:24.016Z,12.75
2023-03-16T08:02:52.775Z,11.77
2023-03-16T08:05:20.124Z,12.98
2023-03-16T08:07:52.010Z,11.93
2023-03-16T08:10:23.905Z,12.50
2023-03-16T08:12:58.475Z,13.50
2023-03-16T08:15:26.213Z,11.70
2023-03-16T08:18:02.676Z,13.13
2023-03-16T08:20:31.348Z,13.60
2023-03-16T08:23:04.612Z,13.50
2023-03-16T08:25:40.872Z,13.50
2023-03-16T08:28:16.087Z,14.00
2023-03-16T08:30:58.860Z,13.23
2023-03-16T08:33:52.263Z,13.63
2023-03-16T08:36:24.057Z,13.02
2023-03-16T08:39:06.429Z,13.18
2023-03-16T08:41:40.897Z,11.93
2023-03-16T08:44:17.618Z,13.15
2023-03-16T08:46:45.531Z,13.23
2023-03-16T08:49:14.545Z,12.82
2023-03-16T08:51:44.815Z,11.75
2023-03-16T08:54:12.749Z,13.02
2023-03-16T08:56:43.411Z,12.15
2023-03-16T08:59:27.077Z,13.55
2023-03-16T09:01:56.694Z,13.88
2023-03-16T09:04:24.077Z,13.07
2023-03-16T09:07:05.764Z,12.35
2023-03-16T09:09:35.873Z,12.07
2023-03-16T09:12:04.575Z,13.43
2023-03-16T09:14:32.266Z,13.90
2023-03-16T09:16:59.786Z,12.70
2023-03-16T09:19:29.176Z,12.10
2023-03-16T09:21:59.029Z,12.65
2023-03-16T09:24:26.402Z,12.90
2023-03-16T09:26:53.756Z,14.07
2023-03-16T09:29:21.970Z,12.60
2023-03-16T09:31:49.198Z,12.48
2023-03-16T09:34:19.200Z,11.25
2023-03-16T09:36:46.439Z,13.05
2023-03-16T09:39:16.525Z,13.80
2023-03-16T09:41:54.231Z,12.48
2023-03-16T09:44:24.244Z,13.32
2023-03-16T09:46:53.545Z,14.70
2023-03-16T09:49:23.958Z,15.63
2023-03-16T09:52:00.533Z,14.45
2023-03-16T09:54:35.021Z,14.40
2023-03-16T09:57:04.280Z,14.57
2023-03-16T09:59:31.637Z,12.35
2023-03-16T10:02:28.732Z,12.75
2023-03-16T10:05:23.510Z,10.82
2023-03-16T10:08:14.172Z,13.20
2023-03-16T10:11:12.594Z,12.10
2023-03-16T10:13:49.210Z,12.32
2023-03-16T10:16:24.132Z,12.32
2023-03-16T10:19:01.432Z,12.52
2023-03-16T10:21:34.664Z,14.40
2023-03-16T10:26:41.056Z,14.18
2023-03-16T10:29:13.216Z,14.38
2023-03-16T10:31:43.779Z,13.82
2023-03-16T10:34:11.928Z,14.07
2023-03-16T10:36:43.673Z,15.20
2023-03-16T10:39:17.365Z,14.88
2023-03-16T10:41:56.573Z,15.93
2023-03-16T10:44:27.278Z,15.98
2023-03-16T10:47:04.907Z,16.70
2023-03-16T10:49:49.422Z,16.05
2023-03-16T10:52:46.363Z,15.32
2023-03-16T10:55:30.504Z,16.25
2023-03-16T10:58:01.563Z,17.52
2023-03-16T11:00:37.546Z,20.00
2023-03-16T11:03:39.589Z,18.98
2023-03-16T11:06:16.592Z,19.73
2023-03-16T11:08:48.908Z,17.98
2023-03-16T11:11:38.964Z,19.45
2023-03-16T11:14:15.647Z,18.13
2023-03-16T11:16:50.944Z,17.85
2023-03-16T11:19:26.596Z,17.33
2023-03-16T11:22:04.151Z,18.10
2023-03-16T11:24:46.280Z,16.15
2023-03-16T11:27:33.441Z,16.73
2023-03-16T11:30:23.320Z,16.08
2023-03-16T11:32:53.691Z,15.65
2023-03-16T11:35:44.161Z,15.55
2023-03-16T11:38:26.835Z,17.40
2023-03-16T11:41:11.814Z,17.83
2023-03-16T11:43:51.259Z,17.13
2023-03-16T11:46:30.755Z,16.67
2023-03-16T11:49:01.637Z,15.90
2023-03-16T11:52:23.633Z,15.18
2023-03-16T11:54:56.756Z,14.95
2023-03-16T11:57:56.350Z,15.23
2023-03-16T12:00:35.729Z,14.45
2023-03-16T12:03:23.140Z,13.18
2023-03-16T12:06:17.035Z,14.85
2023-03-16T12:08:54.744Z,14.00
2023-03-16T12:11:33.870Z,14.35
2023-03-16T12:14:14.829Z,13.65
2023-03-16T12:17:02.905Z,14.60
2023-03-16T12:19:47.218Z,14.00
2023-03-16T12:22:20.110Z,12.90
2023-03-16T12:24:48.425Z,13.90
2023-03-16T12:27:24.150Z,14.52
2023-03-16T12:30:32.715Z,13.68
2023-03-16T12:33:07.837Z,15.38
2023-03-16T12:35:54.074Z,15.30
2023-03-16T12:38:37.997Z,15.00
2023-03-16T12:41:39.719Z,14.52
2023-03-16T12:44:34.603Z,14.73
2023-03-16T12:47:06.660Z,15.50
2023-03-16T12:49:38.053Z,13.88
2023-03-16T12:52:10.108Z,13.77
2023-03-16T12:55:18.392Z,13.60
2023-03-16T12:57:54.357Z,13.57
2023-03-16T13:00:34.911Z,13.02
2023-03-16T13:03:04.312Z,13.13
2023-03-16T13:05:37.239Z,12.50
2023-03-16T13:08:14.955Z,11.27
2023-03-16T13:11:00.178Z,13.07
2023-03-16T13:13:28.670Z,12.75
2023-03-16T13:16:23.818Z,13.60
2023-03-16T13:18:52.370Z,13.18
2023-03-16T13:21:23.205Z,13.25
2023-03-16T13:24:21.760Z,13.60
2023-03-16T13:26:52.452Z,12.57
2023-03-16T13:29:31.840Z,11.43
2023-03-16T13:32:07.660Z,12.02
2023-03-16T13:34:50.113Z,14.10
2023-03-16T13:37:20.938Z,14.13
2023-03-16T13:39:57.566Z,13.73
2023-03-16T13:42:26.462Z,12.35
2023-03-16T13:44:57.026Z,13.27
2023-03-16T13:47:27.841Z,12.88
2023-03-16T13:50:03.859Z,13.05
2023-03-16T13:52:36.010Z,12.80
2023-03-16T13:55:12.188Z,13.65
2023-03-16T13:57:42.449Z,15.23
2023-03-16T14:00:20.394Z,13.15
2023-03-16T14:02:59.604Z,13.88
2023-03-16T14:05:30.582Z,14.00
2023-03-16T14:08:02.310Z,14.40
2023-03-16T14:10:40.805Z,14.57
2023-03-16T14:13:28.366Z,16.00
2023-03-16T14:15:59.922Z,15.88
2023-03-16T14:18:41.689Z,13.25
2023-03-16T14:21:15.056Z,14.73
2023-03-16T14:23:47.708Z,13.82
2023-03-16T14:26:19.611Z,15.30
2023-03-16T14:28:59.872Z,15.05
2023-03-16T14:31:34.759Z,15.80
2023-03-16T14:34:05.103Z,14.98
2023-03-16T14:36:38.890Z,15.88
2023-03-16T14:39:22.240Z,15.80
2023-03-16T14:41:51.621Z,16.83
2023-03-16T14:44:28.963Z,17.58
2023-03-16T14:47:04.243Z,17.42
2023-03-16T14:49:38.952Z,16.02
2023-03-16T14:52:34.258Z,18.42
2023-03-16T14:55:09.940Z,17.98
2023-03-16T14:57:37.306Z,17.88
2023-03-16T15:00:10.116Z,17.67
2023-03-16T15:02:38.538Z,19.35
2023-03-16T15:05:06.223Z,18.10
2023-03-16T15:07:40.240Z,17.70
2023-03-16T15:10:22.348Z,17.63
2023-03-16T15:12:54.267Z,18.20
2023-03-16T15:15:27.880Z,17.65
2023-03-16T15:17:58.125Z,19.42
2023-03-16T15:20:31.924Z,19.13
2023-03-16T15:23:00.052Z,19.92
2023-03-16T15:25:41.564Z,20.42
2023-03-16T15:28:23.901Z,20.52
2023-03-16T15:30:59.694Z,20.35
2023-03-16T15:33:27.437Z,21.75
2023-03-16T15:35:57.472Z,19.70
2023-03-16T15:38:29.737Z,20.33
2023-03-16T15:40:57.225Z,20.80
2023-03-16T15:43:27.407Z,22.30
2023-03-16T15:45:56.591Z,21.88
2023-03-16T15:48:26.596Z,23.02
2023-03-16T15:51:00.546Z,21.23
2023-03-16T15:53:36.036Z,21.52
2023-03-16T15:56:09.905Z,21.23
2023-03-16T15:58:40.587Z,22.08
2023-03-16T16:01:09.152Z,21.63
2023-03-16T16:03:37.892Z,21.40
2023-03-16T16:06:12.199Z,19.42
2023-03-16T16:08:48.488Z,20.43
2023-03-16T16:11:26.950Z,19.67
2023-03-16T16:14:04.532Z,19.67
2023-03-16T16:16:33.976Z,18.50
2023-03-16T16:19:01.297Z,19.80
2023-03-16T16:21:34.187Z,18.63
2023-03-16T16:24:03.254Z,17.75
2023-03-16T16:26:48.970Z,16.30
2023-03-16T16:29:30.875Z,17.58
2023-03-16T16:31:59.300Z,15.60
2023-03-16T16:34:28.417Z,17.27
2023-03-16T16:36:57.429Z,16.95
2023-03-16T16:39:25.538Z,16.65
2023-03-16T16:41:55.515Z,13.85
2023-03-16T16:44:25.832Z,14.45
2023-03-16T16:46:54.362Z,13.13
2023-03-16T16:49:28.551Z,13.95
2023-03-16T16:51:56.261Z,13.00
2023-03-16T16:54:31.352Z,11.65
2023-03-16T16:57:00.485Z,12.70
2023-03-16T16:59:37.943Z,12.30
2023-03-16T17:02:41.023Z,11.35
2023-03-16T17:05:22.116Z,13.93
2023-03-16T17:07:51.148Z,11.90
2023-03-16T17:10:27.349Z,11.77
2023-03-16T17:12:57.132Z,11.93
2023-03-16T17:15:30.451Z,12.57
2023-03-16T17:18:05.209Z,13.27
2023-03-16T17:20:34.621Z,14.85
2023-03-16T17:23:02.226Z,13.13
2023-03-16T17:25:30.624Z,13.40
2023-03-16T17:27:58.396Z,13.00
2023-03-16T17:30:31.746Z,12.35
2023-03-16T17:33:07.944Z,12.70
2023-03-16T17:35:35.937Z,13.23
2023-03-16T17:38:03.450Z,13.82
2023-03-16T17:40:31.527Z,12.77
2023-03-16T17:42:59.267Z,14.38
2023-03-16T17:45:28.961Z,13.30
2023-03-16T17:47:57.072Z,13.35
2023-03-16T17:50:29.894Z,12.90
2023-03-16T17:52:57.505Z,14.10
2023-03-16T17:55:25.000Z,13.70
2023-03-16T17:57:55.292Z,13.35
2023-03-16T18:00:35.219Z,12.73
2023-03-16T18:03:14.362Z,12.88
2023-03-16T18:05:45.987Z,14.38
2023-03-16T18:08:20.712Z,14.30
2023-03-16T18:10:57.851Z,13.52
2023-03-16T18:13:29.912Z,12.48
2023-03-16T18:15:58.785Z,12.02
2023-03-16T18:18:27.908Z,13.48
2023-03-16T18:20:57.473Z,13.50
2023-03-16T18:23:28.384Z,12.93
2023-03-16T18:26:01.318Z,13.98
2023-03-16T18:28:29.084Z,11.98
2023-03-16T18:30:57.658Z,13.48
2023-03-16T18:33:34.860Z,11.68
2023-03-16T18:36:08.150Z,12.70
2023-03-16T18:38:39.459Z,12.93
2023-03-16T18:41:44.952Z,12.07
2023-03-16T18:44:19.686Z,13.48
2023-03-16T18:46:48.239Z,13.82
2023-03-16T18:49:32.928Z,13.07
2023-03-16T18:52:01.116Z,13.73
2023-03-16T18:54:35.677Z,14.55
2023-03-16T18:57:04.605Z,14.25
2023-03-16T18:59:32.466Z,14.57
2023-03-16T19:02:03.692Z,13.52
2023-03-16T19:04:35.242Z,13.10
2023-03-16T19:07:03.251Z,12.00
2023-03-16T19:09:32.647Z,11.93
2023-03-16T19:12:00.495Z,11.30
2023-03-16T19:14:31.683Z,11.13
2023-03-16T19:16:59.479Z,12.82
2023-03-16T19:19:27.543Z,13.18
2023-03-16T19:22:19.219Z,12.82
2023-03-16T19:24:48.683Z,13.35
2023-03-16T19:27:24.185Z,13.70
2023-03-16T19:29:53.315Z,12.80
2023-03-16T19:32:22.233Z,13.50
2023-03-16T19:34:49.741Z,12.52
2023-03-16T19:37:19.890Z,13.40
2023-03-16T19:39:47.536Z,12.25
2023-03-16T19:42:33.846Z,12.77
2023-03-16T19:45:01.489Z,12.52
2023-03-16T19:47:33.171Z,12.25
2023-03-16T19:50:01.906Z,10.93
2023-03-16T19:52:32.863Z,11.80
2023-03-16T19:55:00.172Z,11.25
2023-03-16T19:57:29.019Z,12.15
2023-03-16T19:59:57.738Z,11.00
2023-03-16T20:02:40.542Z,10.55
2023-03-16T20:05:15.153Z,11.43
2023-03-16T20:07:42.549Z,10.10
2023-03-16T20:10:16.515Z,10.93
2023-03-16T20:12:44.445Z,10.68
2023-03-16T20:15:21.122Z,9.15
2023-03-16T20:17:50.245Z,7.43
2023-03-16T20:20:27.988Z,7.15
2023-03-16T20:22:58.727Z,9.07
2023-03-16T20:25:31.584Z,7.80
2023-03-16T20:28:02.247Z,5.82
2023-03-16T20:30:31.039Z,8.35
2023-03-16T20:32:58.740Z,7.90
2023-03-16T20:35:29.331Z,6.57
2023-03-16T20:37:57.032Z,7.45
2023-03-16T20:40:25.136Z,7.78
2023-03-16T20:42:53.907Z,6.22
2023-03-16T20:45:25.867Z,6.45
2023-03-16T20:47:53.820Z,6.78
2023-03-16T20:50:28.285Z,6.75
2023-03-16T20:52:56.510Z,6.93
2023-03-16T20:55:27.297Z,6.90
2023-03-16T20:57:55.625Z,7.13
2023-03-16T21:00:35.338Z,6.28
2023-03-16T21:03:11.875Z,5.72
2023-03-16T21:05:41.740Z,5.40
2023-03-16T21:08:09.614Z,5.68
2023-03-16T21:10:38.367Z,6.28
2023-03-16T21:13:08.115Z,5.80
2023-03-16T21:15:36.221Z,6.32
2023-03-16T21:18:07.424Z,4.97
2023-03-16T21:20:35.988Z,6.00
2023-03-16T21:23:03.783Z,6.35
2023-03-16T21:25:40.750Z,5.68
2023-03-16T21:28:12.798Z,6.32
2023-03-16T21:30:47.846Z,6.07
2023-03-16T21:33:20.288Z,5.20
2023-03-16T21:35:47.755Z,6.43
2023-03-16T21:38:18.371Z,6.10
2023-03-16T21:40:46.858Z,6.57
2023-03-16T21:43:16.002Z,6.20
2023-03-16T21:45:48.216Z,6.20
2023-03-16T21:48:40.268Z,6.05
2023-03-16T21:51:18.440Z,6.60
2023-03-16T21:53:48.023Z,6.43
2023-03-16T21:56:26.192Z,6.38
2023-03-16T21:58:54.392Z,6.47
2023-03-16T22:01:30.842Z,6.15
2023-03-16T22:04:17.227Z,6.30
2023-03-16T22:06:46.179Z,5.90
2023-03-16T22:09:22.808Z,7.22
2023-03-16T22:11:52.535Z,7.43
2023-03-16T22:14:20.060Z,6.03
2023-03-16T22:16:48.147Z,6.18
2023-03-16T22:19:18.016Z,5.22
2023-03-16T22:21:47.351Z,5.72
2023-03-16T22:24:21.155Z,6.47
2023-03-16T22:26:50.330Z,5.72
2023-03-16T22:29:26.697Z,6.60
2023-03-16T22:32:04.550Z,5.03
2023-03-16T22:34:35.318Z,5.20
2023-03-16T22:37:03.411Z,6.28
2023-03-16T22:39:37.825Z,6.97
2023-03-16T22:42:19.637Z,5.75
2023-03-16T22:44:49.632Z,6.22
2023-03-16T22:47:26.307Z,5.65
2023-03-16T22:49:54.005Z,6.75
2023-03-16T22:52:25.910Z,6.72
2023-03-16T22:54:53.398Z,5.15
2023-03-16T22:57:20.929Z,5.95
2023-03-16T22:59:48.884Z,5.40
2023-03-16T23:02:21.208Z,4.93
2023-03-16T23:04:48.501Z,5.25
2023-03-16T23:07:16.756Z,4.55
2023-03-16T23:09:49.485Z,5.65
2023-03-16T23:12:23.182Z,5.40
2023-03-16T23:14:50.482Z,3.80
2023-03-16T23:17:22.491Z,5.65
2023-03-16T23:19:50.045Z,6.18
2023-03-16T23:22:17.863Z,5.53
2023-03-16T23:24:47.715Z,5.40
2023-03-16T23:27:18.883Z,5.13
2023-03-16T23:29:46.981Z,4.85
2023-03-16T23:32:17.504Z,4.65
2023-03-16T23:34:45.204Z,4.55
2023-03-16T23:37:12.827Z,4.80
2023-03-16T23:39:43.384Z,4.50
2023-03-16T23:42:11.049Z,4.32
2023-03-16T23:44:38.423Z,4.78
2023-03-16T23:47:06.205Z,4.90
2023-03-16T23:49:36.137Z,5.22
2023-03-16T23:52:04.655Z,5.05
2023-03-16T23:54:33.411Z,4.75
2023-03-16T23:57:01.083Z,4.40
2023-03-16T23:59:28.970Z,4.10
